createdAt,value
2022-11-05T00:00:32.973Z,7.80
2022-11-05T00:03:18.534Z,7.80
2022-11-05T00:06:07.998Z,7.70
2022-11-05T00:08:53.342Z,7.70
2022-11-05T00:11:40.051Z,7.60
2022-11-05T00:14:25.259Z,7.50
2022-11-05T00:16:51.896Z,7.40
2022-11-05T00:19:18.532Z,7.10
2022-11-05T00:22:03.856Z,7.20
2022-11-05T00:24:49.161Z,7.10
2022-11-05T00:27:15.809Z,7.10
2022-11-05T00:29:42.502Z,7.00
2022-11-05T00:32:09.219Z,7.00
2022-11-05T00:34:35.907Z,7.00
2022-11-05T00:37:02.563Z,7.00
2022-11-05T00:39:29.189Z,6.90
2022-11-05T00:42:14.536Z,6.70
2022-11-05T00:44:59.964Z,6.70
2022-11-05T00:47:45.407Z,6.70
2022-11-05T00:50:12.171Z,6.70
2022-11-05T00:52:57.569Z,6.60
2022-11-05T00:55:38.064Z,6.60
2022-11-05T00:58:12.247Z,6.60
2022-11-05T01:00:41.703Z,6.50
2022-11-05T01:03:11.513Z,6.50
2022-11-05T01:05:41.578Z,6.50
2022-11-05T01:08:09.727Z,6.40
2022-11-05T01:10:44.610Z,6.40
2022-11-05T01:13:13.366Z,6.50
2022-11-05T01:15:40.955Z,6.40
2022-11-05T01:18:07.913Z,6.30
2022-11-05T01:20:34.610Z,6.40
2022-11-05T01:23:01.305Z,6.40
2022-11-05T01:25:28.052Z,6.40
2022-11-05T01:27:54.897Z,6.40
2022-11-05T01:30:22.378Z,6.30
2022-11-05T01:32:49.295Z,6.20
2022-11-05T01:35:17.549Z,6.20
2022-11-05T01:37:44.682Z,6.10
2022-11-05T01:40:19.566Z,6.10
2022-11-05T01:42:46.550Z,6.10
2022-11-05T01:45:25.131Z,6.10
2022-11-05T01:47:58.058Z,6.10
2022-11-05T01:50:33.429Z,6.10
2022-11-05T01:53:15.545Z,6.10
2022-11-05T01:55:47.755Z,6.10
2022-11-05T01:58:19.645Z,6.00
2022-11-05T02:00:46.553Z,6.00
2022-11-05T02:03:16.417Z,6.00
2022-11-05T02:05:44.009Z,6.00
2022-11-05T02:10:55.147Z,5.90
2022-11-05T02:13:22.934Z,5.80
2022-11-05T02:16:19.058Z,5.90
2022-11-05T02:19:04.719Z,5.80
2022-11-05T02:21:43.506Z,5.90
2022-11-05T02:24:53.639Z,5.80
2022-11-05T02:27:53.757Z,6.00
2022-11-05T02:30:31.860Z,6.00
2022-11-05T02:33:43.534Z,6.10
2022-11-05T02:36:31.394Z,6.00
2022-11-05T02:39:14.184Z,6.10
2022-11-05T02:42:05.439Z,6.10
2022-11-05T02:44:51.902Z,6.00
2022-11-05T02:47:35.997Z,6.10
2022-11-05T02:50:19.367Z,6.00
2022-11-05T02:52:59.670Z,6.00
2022-11-05T02:55:34.050Z,6.10
2022-11-05T02:58:04.191Z,6.00
2022-11-05T03:00:50.865Z,6.00
2022-11-05T03:03:26.343Z,6.10
2022-11-05T03:06:07.827Z,6.00
2022-11-05T03:08:43.294Z,6.10
2022-11-05T03:11:18.568Z,5.90
2022-11-05T03:14:02.649Z,6.00
2022-11-05T03:16:57.128Z,6.00
2022-11-05T03:19:45.847Z,5.80
2022-11-05T03:22:17.546Z,5.80
2022-11-05T03:24:52.379Z,6.00
2022-11-05T03:27:26.312Z,6.10
2022-11-05T03:30:06.256Z,5.90
2022-11-05T03:32:35.911Z,6.00
2022-11-05T03:35:08.442Z,6.00
2022-11-05T03:37:39.520Z,5.80
2022-11-05T03:40:09.043Z,5.80
2022-11-05T03:42:38.672Z,6.10
2022-11-05T03:45:15.502Z,6.00
2022-11-05T03:47:45.517Z,5.90
2022-11-05T03:50:41.110Z,5.90
2022-11-05T03:53:29.842Z,5.90
2022-11-05T03:56:07.660Z,6.10
2022-11-05T03:58:35.625Z,6.00
2022-11-05T04:01:03.565Z,6.00
2022-11-05T04:03:36.104Z,6.20
2022-11-05T04:06:23.271Z,6.20
2022-11-05T04:09:08.685Z,6.20
2022-11-05T04:11:54.210Z,6.30
2022-11-05T04:14:20.969Z,6.30
2022-11-05T04:17:06.072Z,6.30
2022-11-05T04:19:53.060Z,6.40
2022-11-05T04:22:39.004Z,6.40
2022-11-05T04:25:05.772Z,6.40
2022-11-05T04:27:32.450Z,6.50
2022-11-05T04:30:17.725Z,6.50
2022-11-05T04:32:59.727Z,6.70
2022-11-05T04:35:29.205Z,6.70
2022-11-05T04:37:56.042Z,6.80
2022-11-05T04:40:22.938Z,6.90
2022-11-05T04:42:49.625Z,6.90
2022-11-05T04:45:16.356Z,6.80
2022-11-05T04:47:43.118Z,6.90
2022-11-05T04:50:11.982Z,6.90
2022-11-05T04:52:39.349Z,6.90
2022-11-05T04:55:07.125Z,6.90
2022-11-05T04:57:33.982Z,7.00
2022-11-05T05:00:00.762Z,7.00
2022-11-05T05:02:27.553Z,7.10
2022-11-05T05:04:54.343Z,7.00
2022-11-05T05:07:21.005Z,7.10
2022-11-05T05:09:47.663Z,7.10
2022-11-05T05:12:14.568Z,7.10
2022-11-05T05:14:41.236Z,7.20
2022-11-05T05:17:07.869Z,7.20
2022-11-05T05:19:54.513Z,7.20
2022-11-05T05:22:21.317Z,7.20
2022-11-05T05:24:52.567Z,7.20
2022-11-05T05:27:20.078Z,7.20
2022-11-05T05:29:46.770Z,7.10
2022-11-05T05:32:13.427Z,7.10
2022-11-05T05:34:40.159Z,7.00
2022-11-05T05:37:06.909Z,6.90
2022-11-05T05:39:33.578Z,6.90
2022-11-05T05:42:00.268Z,6.80
2022-11-05T05:44:26.966Z,6.80
2022-11-05T05:46:55.245Z,6.80
2022-11-05T05:49:21.951Z,6.70
2022-11-05T05:51:49.643Z,6.70
2022-11-05T05:54:16.623Z,6.70
2022-11-05T05:56:44.459Z,6.60
2022-11-05T05:59:11.651Z,6.60
2022-11-05T06:01:38.542Z,6.50
2022-11-05T06:04:05.571Z,6.40
2022-11-05T06:06:32.244Z,6.40
2022-11-05T06:08:58.885Z,6.40
2022-11-05T06:11:25.888Z,6.40
2022-11-05T06:13:52.620Z,6.30
2022-11-05T06:16:19.409Z,6.30
2022-11-05T06:18:46.657Z,6.30
2022-11-05T06:21:15.761Z,6.30
2022-11-05T06:23:44.481Z,6.20
2022-11-05T06:26:16.791Z,6.20
2022-11-05T06:28:43.826Z,6.10
2022-11-05T06:31:12.022Z,6.20
2022-11-05T06:33:39.587Z,6.10
2022-11-05T06:36:07.568Z,6.10
2022-11-05T06:38:36.386Z,6.20
2022-11-05T06:41:08.983Z,6.10
2022-11-05T06:43:37.072Z,6.10
2022-11-05T06:46:03.960Z,6.20
2022-11-05T06:48:30.681Z,6.30
2022-11-05T06:50:57.365Z,6.30
2022-11-05T06:53:24.134Z,6.30
2022-11-05T06:55:50.854Z,6.30
2022-11-05T06:58:17.577Z,6.40
2022-11-05T07:00:44.335Z,6.40
2022-11-05T07:03:12.616Z,6.30
2022-11-05T07:05:47.866Z,6.30
2022-11-05T07:08:15.220Z,6.30
2022-11-05T07:10:41.926Z,6.40
2022-11-05T07:13:09.180Z,6.40
2022-11-05T07:15:36.640Z,6.50
2022-11-05T07:18:05.109Z,6.40
2022-11-05T07:20:34.345Z,6.40
2022-11-05T07:23:05.821Z,6.40
2022-11-05T07:25:33.823Z,6.40
2022-11-05T07:28:00.685Z,6.40
2022-11-05T07:30:28.369Z,6.40
2022-11-05T07:32:55.663Z,6.50
2022-11-05T07:35:22.838Z,6.40
2022-11-05T07:37:51.638Z,6.40
2022-11-05T07:40:21.703Z,6.50
2022-11-05T07:42:54.744Z,6.60
2022-11-05T07:45:21.775Z,6.60
2022-11-05T07:47:50.449Z,6.60
2022-11-05T07:50:19.082Z,6.70
2022-11-05T07:52:46.184Z,6.70
2022-11-05T07:55:13.354Z,6.70
2022-11-05T07:57:44.729Z,6.80
2022-11-05T08:00:16.826Z,6.80
2022-11-05T08:02:43.774Z,6.90
2022-11-05T08:05:10.843Z,7.00
2022-11-05T08:07:37.500Z,7.00
2022-11-05T08:10:05.680Z,7.00
2022-11-05T08:12:33.998Z,7.00
2022-11-05T08:15:00.660Z,7.10
2022-11-05T08:17:27.382Z,7.20
2022-11-05T08:19:54.123Z,7.20
2022-11-05T08:22:21.402Z,7.30
2022-11-05T08:24:48.068Z,7.30
2022-11-05T08:27:15.205Z,7.40
2022-11-05T08:29:41.874Z,7.50
2022-11-05T08:32:08.601Z,7.50
2022-11-05T08:34:35.339Z,7.60
2022-11-05T08:37:02.352Z,7.60
2022-11-05T08:39:29.427Z,7.70
2022-11-05T08:41:56.106Z,7.70
2022-11-05T08:44:22.793Z,7.70
2022-11-05T08:46:49.573Z,7.90
2022-11-05T08:49:16.664Z,7.90
2022-11-05T08:51:46.292Z,8.20
2022-11-05T08:54:13.322Z,8.50
2022-11-05T08:56:40.209Z,8.90
2022-11-05T08:59:07.023Z,8.90
2022-11-05T09:01:34.379Z,9.30
2022-11-05T09:04:01.303Z,9.40
2022-11-05T09:06:28.798Z,9.70
2022-11-05T09:08:55.633Z,10.00
2022-11-05T09:11:22.326Z,10.10
2022-11-05T09:13:49.073Z,10.20
2022-11-05T09:16:21.099Z,10.50
2022-11-05T09:18:48.264Z,10.80
2022-11-05T09:21:15.400Z,11.10
2022-11-05T09:23:42.078Z,11.30
2022-11-05T09:26:10.333Z,11.30
2022-11-05T09:28:37.330Z,11.80
2022-11-05T09:31:08.702Z,12.10
2022-11-05T09:33:37.718Z,12.00
2022-11-05T09:36:05.354Z,12.00
2022-11-05T09:38:34.792Z,12.20
2022-11-05T09:41:07.277Z,12.00
2022-11-05T09:43:44.412Z,12.60
2022-11-05T09:46:25.479Z,13.00
2022-11-05T09:49:02.133Z,13.10
2022-11-05T09:51:29.417Z,12.90
2022-11-05T09:53:59.360Z,12.70
2022-11-05T09:56:33.793Z,12.60
2022-11-05T09:59:06.098Z,12.10
2022-11-05T10:01:37.486Z,11.80
2022-11-05T10:04:17.521Z,11.90
2022-11-05T10:07:05.630Z,12.50
2022-11-05T10:09:53.848Z,13.00
2022-11-05T10:12:30.245Z,13.70
2022-11-05T10:15:05.552Z,13.50
2022-11-05T10:17:38.771Z,13.70
2022-11-05T10:20:23.358Z,13.20
2022-11-05T10:22:56.632Z,13.00
2022-11-05T10:25:27.713Z,12.50
2022-11-05T10:27:56.965Z,12.50
2022-11-05T10:30:24.039Z,12.40
2022-11-05T10:32:56.081Z,12.30
2022-11-05T10:35:24.957Z,12.10
2022-11-05T10:37:53.474Z,12.20
2022-11-05T10:40:47.841Z,12.10
2022-11-05T10:43:20.749Z,12.10
2022-11-05T10:46:21.145Z,12.00
2022-11-05T10:49:22.091Z,11.90
2022-11-05T10:51:56.106Z,11.90
2022-11-05T10:54:26.336Z,11.90
2022-11-05T10:56:53.099Z,11.90
2022-11-05T10:59:30.455Z,11.90
2022-11-05T11:02:34.281Z,11.80
2022-11-05T11:05:01.025Z,11.70
2022-11-05T11:07:27.760Z,11.60
2022-11-05T11:09:54.594Z,11.70
2022-11-05T11:12:40.905Z,11.70
2022-11-05T11:15:20.265Z,11.60
2022-11-05T11:17:47.765Z,11.70
2022-11-05T11:20:26.477Z,11.70
2022-11-05T11:23:13.743Z,11.80
2022-11-05T11:26:03.899Z,11.90
2022-11-05T11:28:39.973Z,11.80
2022-11-05T11:31:14.118Z,11.80
2022-11-05T11:33:46.673Z,11.70
2022-11-05T11:36:17.008Z,11.70
2022-11-05T11:38:43.936Z,11.90
2022-11-05T11:41:27.431Z,11.90
2022-11-05T11:43:59.362Z,11.90
2022-11-05T11:46:30.429Z,12.10
2022-11-05T11:48:57.508Z,12.00
2022-11-05T11:51:40.405Z,11.90
2022-11-05T11:54:20.728Z,12.00
2022-11-05T11:56:48.480Z,12.00
2022-11-05T11:59:40.872Z,12.00
2022-11-05T12:02:36.805Z,12.10
2022-11-05T12:05:17.709Z,12.10
2022-11-05T12:07:52.839Z,12.00
2022-11-05T12:10:33.996Z,11.90
2022-11-05T12:13:20.784Z,11.90
2022-11-05T12:15:58.090Z,12.00
2022-11-05T12:18:33.728Z,12.20
2022-11-05T12:21:34.636Z,12.20
2022-11-05T12:24:16.535Z,12.30
2022-11-05T12:27:11.018Z,12.50
2022-11-05T12:30:07.892Z,12.60
2022-11-05T12:32:54.216Z,12.70
2022-11-05T12:35:58.142Z,12.90
2022-11-05T12:38:35.101Z,13.30
2022-11-05T12:41:43.278Z,13.40
2022-11-05T12:44:22.804Z,13.30
2022-11-05T12:47:14.831Z,13.10
2022-11-05T12:50:12.028Z,13.00
2022-11-05T12:53:08.176Z,12.90
2022-11-05T12:55:42.788Z,12.80
2022-11-05T12:58:29.023Z,12.60
2022-11-05T13:01:00.247Z,12.60
2022-11-05T13:03:55.074Z,12.60
2022-11-05T13:06:27.425Z,12.60
2022-11-05T13:09:02.338Z,12.60
2022-11-05T13:11:43.268Z,12.60
2022-11-05T13:14:23.834Z,12.50
2022-11-05T13:17:13.608Z,12.50
2022-11-05T13:19:56.878Z,12.50
2022-11-05T13:22:43.068Z,12.50
2022-11-05T13:25:19.983Z,12.50
2022-11-05T13:28:05.381Z,12.50
2022-11-05T13:30:39.267Z,12.50
2022-11-05T13:33:11.839Z,12.50
2022-11-05T13:36:17.007Z,12.60
2022-11-05T13:38:59.123Z,12.60
2022-11-05T13:41:37.579Z,12.70
2022-11-05T13:44:35.152Z,12.60
2022-11-05T13:47:01.838Z,12.70
2022-11-05T13:50:00.562Z,12.80
2022-11-05T13:52:57.786Z,12.70
2022-11-05T13:55:40.530Z,12.70
2022-11-05T13:58:13.138Z,12.50
2022-11-05T14:01:21.243Z,12.50
2022-11-05T14:03:50.356Z,12.40
2022-11-05T14:06:43.550Z,12.40
2022-11-05T14:09:16.495Z,12.30
2022-11-05T14:11:49.953Z,12.20
2022-11-05T14:14:25.996Z,12.20
2022-11-05T14:17:12.765Z,12.20
2022-11-05T14:20:01.100Z,12.30
2022-11-05T14:22:32.704Z,12.30
2022-11-05T14:25:01.092Z,12.30
2022-11-05T14:27:36.604Z,12.10
2022-11-05T14:30:41.903Z,12.10
2022-11-05T14:33:32.745Z,12.10
2022-11-05T14:36:21.501Z,12.00
2022-11-05T14:38:54.355Z,11.90
2022-11-05T14:41:21.860Z,11.80
2022-11-05T14:44:01.278Z,11.80
2022-11-05T14:46:44.960Z,11.70
2022-11-05T14:49:21.744Z,11.70
2022-11-05T14:51:51.508Z,11.60
2022-11-05T14:54:44.002Z,11.60
2022-11-05T14:57:35.043Z,11.60
2022-11-05T15:00:02.556Z,11.60
2022-11-05T15:02:38.713Z,11.60
2022-11-05T15:05:49.913Z,11.60
2022-11-05T15:08:34.454Z,11.60
2022-11-05T15:11:27.498Z,11.60
2022-11-05T15:13:54.102Z,11.60
2022-11-05T15:16:25.915Z,11.60
2022-11-05T15:18:55.879Z,11.60
2022-11-05T15:21:24.175Z,11.50
2022-11-05T15:23:56.205Z,11.50
2022-11-05T15:26:44.245Z,11.50
2022-11-05T15:29:22.019Z,11.50
2022-11-05T15:31:50.113Z,11.50
2022-11-05T15:34:31.909Z,11.50
2022-11-05T15:37:22.996Z,11.40
2022-11-05T15:39:51.939Z,11.40
2022-11-05T15:42:22.251Z,11.40
2022-11-05T15:44:51.546Z,11.30
2022-11-05T15:47:21.606Z,11.30
2022-11-05T15:49:55.871Z,11.30
2022-11-05T15:52:37.361Z,11.20
2022-11-05T15:55:17.929Z,11.20
2022-11-05T15:57:50.939Z,11.20
2022-11-05T16:00:26.835Z,11.20
2022-11-05T16:03:05.805Z,11.10
2022-11-05T16:05:42.823Z,11.10
2022-11-05T16:08:19.305Z,11.10
2022-11-05T16:10:52.368Z,11.10
2022-11-05T16:13:37.524Z,11.00
2022-11-05T16:16:16.224Z,11.00
2022-11-05T16:18:45.773Z,11.00
2022-11-05T16:21:18.796Z,11.00
2022-11-05T16:23:49.867Z,11.00
2022-11-05T16:26:55.777Z,11.00
2022-11-05T16:29:22.797Z,11.00
2022-11-05T16:31:51.404Z,11.00
2022-11-05T16:34:37.600Z,11.00
2022-11-05T16:37:06.342Z,11.00
2022-11-05T16:39:33.400Z,11.00
2022-11-05T16:42:00.126Z,10.90
2022-11-05T16:44:26.825Z,10.90
2022-11-05T16:46:53.711Z,10.90
2022-11-05T16:49:21.176Z,10.90
2022-11-05T16:51:47.831Z,10.90
2022-11-05T16:54:14.566Z,10.90
2022-11-05T16:56:42.748Z,10.90
2022-11-05T16:59:12.865Z,10.90
2022-11-05T17:01:42.090Z,10.80
2022-11-05T17:04:11.529Z,10.80
2022-11-05T17:06:38.271Z,10.80
2022-11-05T17:09:05.009Z,10.80
2022-11-05T17:11:31.674Z,10.80
2022-11-05T17:13:58.328Z,10.80
2022-11-05T17:16:26.221Z,10.80
2022-11-05T17:18:52.953Z,10.80
2022-11-05T17:21:19.626Z,10.80
2022-11-05T17:23:46.468Z,10.80
2022-11-05T17:26:13.974Z,10.80
2022-11-05T17:28:40.942Z,10.80
2022-11-05T17:31:12.917Z,10.70
2022-11-05T17:33:40.068Z,10.70
2022-11-05T17:36:08.515Z,10.70
2022-11-05T17:38:35.383Z,10.70
2022-11-05T17:41:09.259Z,10.70
2022-11-05T17:43:36.042Z,10.70
2022-11-05T17:46:10.244Z,10.70
2022-11-05T17:48:37.977Z,10.70
2022-11-05T17:51:07.873Z,10.80
2022-11-05T17:53:34.569Z,10.80
2022-11-05T17:56:01.258Z,10.80
2022-11-05T17:58:28.293Z,10.80
2022-11-05T18:00:54.940Z,10.80
2022-11-05T18:03:21.757Z,10.80
2022-11-05T18:05:48.481Z,10.80
2022-11-05T18:08:15.173Z,10.80
2022-11-05T18:10:42.146Z,10.80
2022-11-05T18:13:09.945Z,10.80
2022-11-05T18:15:40.843Z,10.80
2022-11-05T18:18:08.225Z,10.80
2022-11-05T18:20:34.950Z,10.80
2022-11-05T18:23:01.937Z,10.80
2022-11-05T18:25:28.721Z,10.70
2022-11-05T18:27:55.791Z,10.70
2022-11-05T18:30:22.526Z,10.70
2022-11-05T18:32:50.951Z,10.70
2022-11-05T18:35:17.896Z,10.70
2022-11-05T18:37:44.793Z,10.70
2022-11-05T18:40:12.044Z,10.70
2022-11-05T18:42:39.131Z,10.60
2022-11-05T18:45:07.257Z,10.60
2022-11-05T18:47:34.163Z,10.70
2022-11-05T18:50:01.322Z,10.70
2022-11-05T18:52:31.393Z,10.70
2022-11-05T18:54:58.781Z,10.60
2022-11-05T18:57:26.100Z,10.70
2022-11-05T18:59:52.890Z,10.60
2022-11-05T19:02:19.882Z,10.60
2022-11-05T19:05:13.938Z,10.60
2022-11-05T19:07:37.049Z,10.60
2022-11-05T19:10:04.479Z,10.60
2022-11-05T19:12:31.242Z,10.60
2022-11-05T19:15:02.060Z,10.60
2022-11-05T19:17:31.328Z,10.60
2022-11-05T19:19:58.344Z,10.60
2022-11-05T19:22:25.878Z,10.60
2022-11-05T19:24:52.613Z,10.60
2022-11-05T19:27:19.804Z,10.60
2022-11-05T19:29:47.389Z,10.50
2022-11-05T19:32:14.486Z,10.50
2022-11-05T19:34:41.473Z,10.50
2022-11-05T19:37:08.600Z,10.40
2022-11-05T19:39:36.082Z,10.50
2022-11-05T19:42:04.052Z,10.40
2022-11-05T19:44:31.574Z,10.40
2022-11-05T19:46:58.794Z,10.40
2022-11-05T19:49:27.996Z,10.30
2022-11-05T19:51:55.321Z,10.40
2022-11-05T19:54:22.200Z,10.40
2022-11-05T19:56:51.116Z,10.30
2022-11-05T19:59:18.054Z,10.40
2022-11-05T20:01:44.999Z,10.40
2022-11-05T20:04:11.935Z,10.40
2022-11-05T20:06:40.017Z,10.40
2022-11-05T20:09:22.638Z,10.40
2022-11-05T20:11:52.335Z,10.40
2022-11-05T20:14:19.071Z,10.40
2022-11-05T20:16:46.998Z,10.40
2022-11-05T20:19:16.157Z,10.40
2022-11-05T20:21:44.296Z,10.40
2022-11-05T20:24:13.232Z,10.40
2022-11-05T20:26:40.490Z,10.30
2022-11-05T20:29:07.317Z,10.40
2022-11-05T20:31:34.053Z,10.40
2022-11-05T20:34:00.762Z,10.30
2022-11-05T20:36:27.547Z,10.30
2022-11-05T20:38:57.843Z,10.30
2022-11-05T20:41:25.785Z,10.30
2022-11-05T20:43:52.551Z,10.30
2022-11-05T20:46:21.228Z,10.40
2022-11-05T20:48:48.089Z,10.40
2022-11-05T20:51:18.726Z,10.30
2022-11-05T20:53:46.314Z,10.30
2022-11-05T20:56:25.025Z,10.30
2022-11-05T20:58:53.990Z,10.30
2022-11-05T21:01:20.849Z,10.30
2022-11-05T21:03:48.189Z,10.20
2022-11-05T21:06:15.489Z,10.10
2022-11-05T21:08:43.029Z,10.10
2022-11-05T21:11:10.695Z,10.10
2022-11-05T21:13:38.145Z,10.10
2022-11-05T21:16:07.219Z,10.00
2022-11-05T21:18:36.186Z,10.10
2022-11-05T21:21:12.035Z,10.00
2022-11-05T21:23:38.816Z,9.90
2022-11-05T21:26:07.284Z,9.90
2022-11-05T21:28:34.388Z,9.90
2022-11-05T21:31:02.450Z,9.90
2022-11-05T21:33:29.481Z,9.90
2022-11-05T21:35:56.833Z,9.90
2022-11-05T21:38:23.706Z,10.00
2022-11-05T21:40:50.375Z,10.00
2022-11-05T21:43:17.756Z,10.00
2022-11-05T21:45:45.239Z,10.00
2022-11-05T21:48:12.736Z,10.10
2022-11-05T21:50:59.088Z,10.10
2022-11-05T21:53:45.182Z,10.10
2022-11-05T21:56:40.821Z,10.10
2022-11-05T21:59:30.438Z,10.20
2022-11-05T22:02:01.522Z,10.20
2022-11-05T22:04:36.750Z,10.20
2022-11-05T22:07:04.715Z,10.20
2022-11-05T22:09:31.790Z,10.20
2022-11-05T22:11:59.420Z,10.20
2022-11-05T22:14:26.885Z,10.20
2022-11-05T22:16:53.912Z,10.20
2022-11-05T22:19:21.279Z,10.20
2022-11-05T22:21:47.995Z,10.10
2022-11-05T22:24:15.257Z,10.20
2022-11-05T22:26:42.768Z,10.10
2022-11-05T22:29:10.672Z,10.10
2022-11-05T22:31:37.382Z,10.10
2022-11-05T22:34:05.881Z,10.10
2022-11-05T22:36:33.934Z,10.10
2022-11-05T22:39:01.319Z,10.20
2022-11-05T22:41:28.203Z,10.20
2022-11-05T22:43:55.698Z,10.10
2022-11-05T22:46:25.456Z,10.20
2022-11-05T22:48:53.026Z,10.20
2022-11-05T22:51:25.123Z,10.20
2022-11-05T22:53:52.031Z,10.20
2022-11-05T22:56:21.095Z,10.20
2022-11-05T22:58:48.452Z,10.20
2022-11-05T23:01:15.849Z,10.20
2022-11-05T23:03:44.484Z,10.20
2022-11-05T23:06:47.904Z,10.20
2022-11-05T23:09:49.900Z,10.30
2022-11-05T23:12:29.349Z,10.20
2022-11-05T23:14:57.875Z,10.20
2022-11-05T23:17:43.729Z,10.20
2022-11-05T23:20:35.066Z,10.20
2022-11-05T23:23:20.542Z,10.20
2022-11-05T23:25:47.347Z,10.20
2022-11-05T23:28:15.086Z,10.20
2022-11-05T23:31:04.119Z,10.10
2022-11-05T23:33:34.334Z,10.10
2022-11-05T23:36:20.271Z,10.10
2022-11-05T23:38:46.975Z,10.10
2022-11-05T23:41:32.248Z,10.10
2022-11-05T23:44:17.746Z,10.00
2022-11-05T23:47:03.257Z,10.00
2022-11-05T23:49:29.956Z,9.90
2022-11-05T23:51:56.661Z,9.90
2022-11-05T23:54:23.333Z,9.90
2022-11-05T23:56:49.989Z,9.80
2022-11-05T23:59:16.707Z,9.80
